KCLL - College Station/East, TX, US

Issued at 0520 UTC 26 May 2019
Updated at 0856 UTC 26 May 2019
Potential Impact None Slight Moderate High
Time0853Z 26/09Z 26/10Z 26/11Z 26/12Z 26/13Z 26/14Z 26/15Z 26/16Z 26/17Z 26/18Z 26/19Z 26/20Z 26/21Z>>
Type OBS PRVL PRVL PRVL PRVL PRVL PRVL PRVL PRVL PRVL PRVL PRVL PRVL PRVL
VIS 10 >6 >6 >6 >6 >6 >6 >6 >6 >6 >6 >6 >6 >6
CIG 20 15 15 15 15 15 22 22 22 22 -- -- -- --
Cover OVC BKN BKN BKN BKN BKN BKN BKN BKN BKN SCT SCT SCT SCT
FltCat MVFR MVFR MVFR MVFR MVFR MVFR MVFR MVFR MVFR MVFR VFR VFR VFR VFR
WX -- -- -- -- -- -- -- -- -- -- -- -- -- --
WDir 170 150 150 150 150 150 160 160 160 160 160 160 160 160
WSpd 10 8 8 8 8 8 13 13 13 13 14 14 14 14
WGst -- -- -- -- -- -- 19 19 19 19 22 22 22 22
Raw TAF
KCLL 260520Z 2606/2706 15010KT P6SM SCT020
  FM260800 15008KT P6SM SCT008 BKN015
  FM261400 16013G19KT P6SM SCT015 BKN022
  FM261800 16014G22KT P6SM SCT040
  FM270100 15010KT P6SM SCT020


Raw METAR
KCLL 260853Z AUTO 17010KT 10SM SCT014 BKN020 OVC034 25/23 A3003 RMK AO2 SLP163 T02500228 55000
KCLL 260753Z AUTO 15010KT 10SM BKN013 BKN018 OVC023 25/23 A3002 RMK AO2 SLP160 T02500228
KCLL 260729Z AUTO 15009KT 10SM BKN015 OVC023 24/23 A3002 RMK AO2 T02440228
KCLL 260653Z AUTO 15008KT 10SM BKN012 24/23 A3003 RMK AO2 SLP163 T02440228
KCLL 260635Z AUTO 15010KT 10SM BKN012 24/23 A3003 RMK AO2 T02440228
KCLL 260553Z AUTO 16009KT 10SM CLR 24/22 A3003 RMK AO2 SLP162 T02440222 10311 20244 403330228 51005

METAR Board
Radar Display
Forecast Discussion
For situational awareness. Not to be used for flight planning purposes.